createdAt,value
2023-09-20T00:00:35.570Z,100526.41
2023-09-20T00:03:05.628Z,100523.56
2023-09-20T00:05:35.001Z,100528.00
2023-09-20T00:08:07.189Z,100523.09
2023-09-20T00:10:36.657Z,100534.53
2023-09-20T00:13:06.260Z,100529.59
2023-09-20T00:15:35.864Z,100533.28
2023-09-20T00:18:05.564Z,100537.38
2023-09-20T00:20:34.974Z,100529.69
2023-09-20T00:23:06.662Z,100533.78
2023-09-20T00:25:36.565Z,100531.00
2023-09-20T00:28:06.634Z,100539.56
2023-09-20T00:30:35.988Z,100532.69
2023-09-20T00:33:05.594Z,100531.88
2023-09-20T00:35:35.312Z,100529.81
2023-09-20T00:38:07.210Z,100533.84
2023-09-20T00:40:38.679Z,100518.78
2023-09-20T00:43:09.341Z,100521.63
2023-09-20T00:45:41.994Z,100524.50
2023-09-20T00:48:15.402Z,100531.44
2023-09-20T00:50:45.316Z,100524.13
2023-09-20T00:53:18.773Z,100526.53
2023-09-20T00:55:48.820Z,100529.81
2023-09-20T00:58:20.837Z,100529.44
2023-09-20T01:00:53.731Z,100532.75
2023-09-20T01:03:23.489Z,100539.72
2023-09-20T01:05:53.413Z,100538.88
2023-09-20T01:08:24.929Z,100537.25
2023-09-20T01:10:56.183Z,100536.44
2023-09-20T01:13:26.174Z,100537.25
2023-09-20T01:15:55.577Z,100537.25
2023-09-20T01:18:25.077Z,100540.91
2023-09-20T01:20:54.477Z,100539.28
2023-09-20T01:23:25.457Z,100542.59
2023-09-20T01:25:58.496Z,100552.41
2023-09-20T01:28:29.619Z,100539.81
2023-09-20T01:31:01.914Z,100545.94
2023-09-20T01:33:31.428Z,100546.00
2023-09-20T01:36:00.950Z,100547.69
2023-09-20T01:38:32.230Z,100548.13
2023-09-20T01:41:01.765Z,100551.41
2023-09-20T01:43:31.173Z,100553.09
2023-09-20T01:46:03.373Z,100552.72
2023-09-20T01:48:33.384Z,100558.88
2023-09-20T01:51:04.050Z,100554.84
2023-09-20T01:53:35.420Z,100558.94
2023-09-20T01:56:05.262Z,100560.16
2023-09-20T01:58:34.657Z,100567.91
2023-09-20T02:01:04.388Z,100566.66
2023-09-20T02:03:34.093Z,100567.13
2023-09-20T02:06:03.630Z,100570.75
2023-09-20T02:08:35.822Z,100571.59
2023-09-20T02:11:05.358Z,100574.44
2023-09-20T02:13:34.753Z,100576.47
2023-09-20T02:16:05.186Z,100574.44
2023-09-20T02:18:34.595Z,100574.44
2023-09-20T02:21:04.035Z,100574.44
2023-09-20T02:23:35.370Z,100570.34
2023-09-20T02:26:05.045Z,100565.06
2023-09-20T02:28:36.239Z,100563.03
2023-09-20T02:31:05.931Z,100561.41
2023-09-20T02:33:35.327Z,100558.56
2023-09-20T02:36:06.449Z,100561.84
2023-09-20T02:38:38.715Z,100559.00
2023-09-20T02:41:09.409Z,100567.19
2023-09-20T02:43:39.719Z,100561.88
2023-09-20T02:46:10.370Z,100567.25
2023-09-20T02:48:40.112Z,100572.56
2023-09-20T02:51:09.962Z,100563.19
2023-09-20T02:53:42.052Z,100559.16
2023-09-20T02:56:11.522Z,100562.47
2023-09-20T02:58:41.029Z,100563.69
2023-09-20T03:01:12.404Z,100569.41
2023-09-20T03:03:42.063Z,100563.69
2023-09-20T03:06:12.953Z,100571.44
2023-09-20T03:08:45.161Z,100571.44
2023-09-20T03:11:23.379Z,100576.72
2023-09-20T03:13:52.850Z,100577.13
2023-09-20T03:16:22.810Z,100578.75
2023-09-20T03:18:52.608Z,100580.81
2023-09-20T03:21:23.106Z,100579.56
2023-09-20T03:23:54.807Z,100582.81
2023-09-20T03:26:24.748Z,100582.81
2023-09-20T03:28:58.463Z,100586.47
2023-09-20T03:31:28.315Z,100594.22
2023-09-20T03:33:57.738Z,100591.72
2023-09-20T03:36:27.280Z,100578.28
2023-09-20T03:38:59.454Z,100586.84
2023-09-20T03:41:29.075Z,100580.31
2023-09-20T03:43:58.770Z,100588.88
2023-09-20T03:46:32.974Z,100594.16
2023-09-20T03:49:02.677Z,100585.59
2023-09-20T03:51:33.258Z,100589.25
2023-09-20T03:54:05.101Z,100589.25
2023-09-20T03:56:36.815Z,100597.44
2023-09-20T03:59:07.724Z,100588.53
2023-09-20T04:01:38.587Z,100594.22
2023-09-20T04:04:10.098Z,100599.94
2023-09-20T04:06:39.993Z,100596.63
2023-09-20T04:09:12.596Z,100604.38
2023-09-20T04:11:43.215Z,100600.34
2023-09-20T04:14:12.787Z,100603.63
2023-09-20T04:16:42.456Z,100606.91
2023-09-20T04:19:12.045Z,100605.72
2023-09-20T04:21:41.411Z,100604.13
2023-09-20T04:24:12.747Z,100611.88
2023-09-20T04:26:42.470Z,100607.38
2023-09-20T04:29:12.197Z,100612.28
2023-09-20T04:31:41.956Z,100613.53
2023-09-20T04:34:12.735Z,100613.53
2023-09-20T04:36:42.304Z,100616.38
2023-09-20T04:39:13.857Z,100616.75
2023-09-20T04:41:43.561Z,100617.59
2023-09-20T04:44:15.114Z,100620.00
2023-09-20T04:46:45.448Z,100619.59
2023-09-20T04:49:15.112Z,100621.19
2023-09-20T04:51:44.984Z,100621.56
2023-09-20T04:54:16.287Z,100616.22
2023-09-20T04:56:49.380Z,100623.56
2023-09-20T04:59:20.717Z,100626.78
2023-09-20T05:01:50.606Z,100628.41
2023-09-20T05:04:21.678Z,100629.59
2023-09-20T05:06:51.448Z,100628.34
2023-09-20T05:09:22.817Z,100623.03
2023-09-20T05:11:52.178Z,100630.34
2023-09-20T05:14:21.689Z,100627.06
2023-09-20T05:16:51.088Z,100633.16
2023-09-20T05:19:20.506Z,100630.63
2023-09-20T05:21:49.883Z,100628.16
2023-09-20T05:24:21.142Z,100630.59
2023-09-20T05:26:50.819Z,100636.66
2023-09-20T05:29:20.342Z,100636.63
2023-09-20T05:31:51.259Z,100634.97
2023-09-20T05:34:22.513Z,100635.34
2023-09-20T05:36:53.808Z,100638.13
2023-09-20T05:39:25.500Z,100638.50
2023-09-20T05:41:55.805Z,100640.47
2023-09-20T05:44:25.337Z,100638.00
2023-09-20T05:46:55.381Z,100642.88
2023-09-20T05:49:25.376Z,100644.06
2023-09-20T05:51:54.879Z,100646.91
2023-09-20T05:54:26.599Z,100636.66
2023-09-20T05:56:55.977Z,100641.13
2023-09-20T05:59:25.490Z,100642.75
2023-09-20T06:01:55.080Z,100646.78
2023-09-20T06:04:24.703Z,100645.09
2023-09-20T06:06:55.605Z,100648.72
2023-09-20T06:09:27.321Z,100647.03
2023-09-20T06:11:56.887Z,100649.00
2023-09-20T06:14:26.375Z,100648.16
2023-09-20T06:16:56.213Z,100649.31
2023-09-20T06:19:30.025Z,100648.47
2023-09-20T06:21:59.678Z,100651.25
2023-09-20T06:24:31.214Z,100648.31
2023-09-20T06:27:00.655Z,100660.13
2023-09-20T06:29:30.693Z,100659.25
2023-09-20T06:32:00.396Z,100659.22
2023-09-20T06:34:30.010Z,100667.72
2023-09-20T06:37:00.022Z,100657.91
2023-09-20T06:39:31.254Z,100663.56
2023-09-20T06:42:00.701Z,100669.66
2023-09-20T06:44:30.226Z,100669.22
2023-09-20T06:47:00.124Z,100674.06
2023-09-20T06:49:30.591Z,100668.69
2023-09-20T06:52:04.251Z,100676.84
2023-09-20T06:54:37.552Z,100676.41
2023-09-20T06:57:08.135Z,100672.28
2023-09-20T06:59:39.730Z,100672.66
2023-09-20T07:02:10.054Z,100677.94
2023-09-20T07:04:40.820Z,100672.59
2023-09-20T07:07:11.796Z,100675.84
2023-09-20T07:09:44.780Z,100676.22
2023-09-20T07:12:14.176Z,100677.78
2023-09-20T07:14:43.772Z,100679.78
2023-09-20T07:17:13.566Z,100674.06
2023-09-20T07:19:46.199Z,100678.53
2023-09-20T07:22:16.076Z,100678.09
2023-09-20T07:24:48.711Z,100672.75
2023-09-20T07:27:20.219Z,100672.31
2023-09-20T07:29:53.284Z,100677.59
2023-09-20T07:32:22.651Z,100672.25
2023-09-20T07:34:59.421Z,100677.53
2023-09-20T07:37:28.978Z,100675.44
2023-09-20T07:40:00.434Z,100677.91
2023-09-20T07:42:29.895Z,100678.72
2023-09-20T07:44:59.553Z,100680.34
2023-09-20T07:47:30.660Z,100678.28
2023-09-20T07:50:00.419Z,100675.78
2023-09-20T07:52:29.837Z,100668.81
2023-09-20T07:55:03.016Z,100681.44
2023-09-20T07:57:32.399Z,100672.88
2023-09-20T08:00:01.850Z,100672.88
2023-09-20T08:02:31.596Z,100665.88
2023-09-20T08:05:01.132Z,100664.22
2023-09-20T08:07:30.804Z,100665.38
2023-09-20T08:10:02.288Z,100664.94
2023-09-20T08:12:33.166Z,100661.66
2023-09-20T08:15:03.331Z,100669.78
2023-09-20T08:17:50.382Z,100659.50
2023-09-20T08:20:22.712Z,100666.84
2023-09-20T08:23:09.258Z,100668.81
2023-09-20T08:25:58.120Z,100663.47
2023-09-20T08:28:44.549Z,100654.06
2023-09-20T08:31:31.373Z,100661.31
2023-09-20T08:34:17.641Z,100666.63
2023-09-20T08:37:04.084Z,100659.63
2023-09-20T08:39:51.116Z,100667.78
2023-09-20T08:42:40.107Z,100665.28
2023-09-20T08:45:28.473Z,100664.84
2023-09-20T08:48:18.654Z,100667.25
2023-09-20T08:51:06.370Z,100663.13
2023-09-20T08:53:53.895Z,100665.22
2023-09-20T08:56:41.475Z,100663.97
2023-09-20T08:59:30.464Z,100662.34
2023-09-20T09:02:02.253Z,100672.56
2023-09-20T09:04:32.516Z,100661.09
2023-09-20T09:07:02.188Z,100664.75
2023-09-20T09:09:31.822Z,100676.56
2023-09-20T09:12:01.239Z,100667.97
2023-09-20T09:14:33.397Z,100666.38
2023-09-20T09:17:08.169Z,100663.06
2023-09-20T09:19:38.900Z,100666.75
2023-09-20T09:22:09.170Z,100658.94
2023-09-20T09:24:49.728Z,100661.38
2023-09-20T09:27:19.846Z,100658.09
2023-09-20T09:29:51.378Z,100659.72
2023-09-20T09:32:21.517Z,100663.38
2023-09-20T09:34:50.933Z,100665.00
2023-09-20T09:37:20.316Z,100654.38
2023-09-20T09:40:02.503Z,100654.28
2023-09-20T09:42:32.820Z,100645.69
2023-09-20T09:45:04.333Z,100649.34
2023-09-20T09:47:35.736Z,100650.97
2023-09-20T09:50:08.323Z,100649.25
2023-09-20T09:52:41.778Z,100649.25
2023-09-20T09:55:11.704Z,100644.34
2023-09-20T09:57:41.258Z,100645.97
2023-09-20T10:00:17.554Z,100650.44
2023-09-20T10:02:49.697Z,100654.94
2023-09-20T10:05:21.793Z,100644.28
2023-09-20T10:08:02.915Z,100649.53
2023-09-20T10:10:32.478Z,100649.19
2023-09-20T10:13:04.843Z,100645.06
2023-09-20T10:15:37.669Z,100645.88
2023-09-20T10:18:08.964Z,100649.53
2023-09-20T10:21:02.439Z,100650.34
2023-09-20T10:23:31.991Z,100647.91
2023-09-20T10:26:03.414Z,100652.41
2023-09-20T10:28:40.711Z,100652.41
2023-09-20T10:31:19.053Z,100652.75
2023-09-20T10:33:53.471Z,100644.19
2023-09-20T10:36:28.093Z,100640.06
2023-09-20T10:39:24.013Z,100635.13
2023-09-20T10:41:55.420Z,100634.34
2023-09-20T10:44:32.434Z,100639.97
2023-09-20T10:47:10.934Z,100642.41
2023-09-20T10:49:46.931Z,100628.91
2023-09-20T10:52:38.864Z,100628.44
2023-09-20T10:55:39.227Z,100619.41
2023-09-20T10:58:09.863Z,100636.59
2023-09-20T11:00:39.481Z,100634.06
2023-09-20T11:03:11.631Z,100624.59
2023-09-20T11:05:44.319Z,100624.16
2023-09-20T11:08:18.431Z,100626.13
2023-09-20T11:10:48.338Z,100627.75
2023-09-20T11:13:20.979Z,100620.75
2023-09-20T11:15:50.748Z,100614.56
2023-09-20T11:18:22.240Z,100621.91
2023-09-20T11:20:52.194Z,100622.75
2023-09-20T11:23:26.528Z,100627.22
2023-09-20T11:26:00.464Z,100621.50
2023-09-20T11:28:30.225Z,100618.63
2023-09-20T11:31:01.061Z,100625.94
2023-09-20T11:33:33.178Z,100621.84
2023-09-20T11:36:02.842Z,100621.84
2023-09-20T11:38:32.427Z,100614.09
2023-09-20T11:41:04.465Z,100623.91
2023-09-20T11:43:34.390Z,100622.69
2023-09-20T11:46:04.468Z,100616.13
2023-09-20T11:48:35.817Z,100624.72
2023-09-20T11:51:06.188Z,100621.03
2023-09-20T11:53:36.445Z,100609.56
2023-09-20T11:56:07.494Z,100620.22
2023-09-20T11:58:38.453Z,100623.91
2023-09-20T12:01:10.360Z,100614.47
2023-09-20T12:03:42.690Z,100618.16
2023-09-20T12:06:13.012Z,100615.31
2023-09-20T12:08:43.548Z,100605.09
2023-09-20T12:11:13.628Z,100605.88
2023-09-20T12:13:46.808Z,100612.44
2023-09-20T12:16:17.342Z,100609.56
2023-09-20T12:18:48.881Z,100600.16
2023-09-20T12:21:18.457Z,100610.81
2023-09-20T12:23:47.877Z,100605.09
2023-09-20T12:26:18.724Z,100609.56
2023-09-20T12:28:48.416Z,100602.63
2023-09-20T12:31:21.068Z,100609.16
2023-09-20T12:33:52.246Z,100609.16
2023-09-20T12:36:25.350Z,100612.00
2023-09-20T12:38:54.848Z,100602.63
2023-09-20T12:41:26.081Z,100598.13
2023-09-20T12:43:55.539Z,100600.97
2023-09-20T12:46:26.170Z,100601.44
2023-09-20T12:48:58.784Z,100607.16
2023-09-20T12:51:30.148Z,100600.63
2023-09-20T12:53:59.962Z,100600.25
2023-09-20T12:56:31.990Z,100603.56
2023-09-20T12:59:01.621Z,100599.09
2023-09-20T13:01:31.599Z,100603.22
2023-09-20T13:04:02.617Z,100592.22
2023-09-20T13:06:34.297Z,100599.97
2023-09-20T13:09:03.867Z,100591.84
2023-09-20T13:11:33.325Z,100593.94
2023-09-20T13:14:02.833Z,100593.09
2023-09-20T13:16:32.168Z,100590.25
2023-09-20T13:19:04.245Z,100589.44
2023-09-20T13:21:33.753Z,100587.00
2023-09-20T13:24:03.427Z,100583.81
2023-09-20T13:26:32.963Z,100587.94
2023-09-20T13:29:02.833Z,100574.88
2023-09-20T13:31:32.861Z,100591.22
2023-09-20T13:34:04.775Z,100585.94
2023-09-20T13:36:35.416Z,100588.03
2023-09-20T13:39:04.887Z,100591.31
2023-09-20T13:41:34.169Z,100592.13
2023-09-20T13:44:04.844Z,100597.03
2023-09-20T13:46:36.504Z,100590.53
2023-09-20T13:49:09.317Z,100592.56
2023-09-20T13:51:40.443Z,100594.63
2023-09-20T13:54:11.542Z,100586.03
2023-09-20T13:56:41.589Z,100586.47
2023-09-20T13:59:12.047Z,100587.28
2023-09-20T14:01:41.556Z,100580.75
2023-09-20T14:04:13.310Z,100577.09
2023-09-20T14:06:42.766Z,100577.53
2023-09-20T14:09:14.574Z,100586.13
2023-09-20T14:11:44.606Z,100583.69
2023-09-20T14:14:14.159Z,100578.44
2023-09-20T14:16:43.605Z,100577.63
2023-09-20T14:19:14.975Z,100576.81
2023-09-20T14:21:44.870Z,100579.69
2023-09-20T14:24:15.150Z,100581.75
2023-09-20T14:26:46.613Z,100572.78
2023-09-20T14:29:16.241Z,100579.78
2023-09-20T14:31:50.316Z,100579.78
2023-09-20T14:34:23.051Z,100581.00
2023-09-20T14:36:53.024Z,100575.75
2023-09-20T14:39:22.576Z,100577.00
2023-09-20T14:41:51.974Z,100576.63
2023-09-20T14:44:22.168Z,100574.22
2023-09-20T14:46:55.330Z,100570.53
2023-09-20T14:49:26.266Z,100574.66
2023-09-20T14:51:55.935Z,100573.03
2023-09-20T14:54:25.378Z,100575.09
2023-09-20T14:56:55.228Z,100570.63
2023-09-20T14:59:24.674Z,100567.75
2023-09-20T15:01:55.316Z,100575.53
2023-09-20T15:04:27.356Z,100566.94
2023-09-20T15:06:56.933Z,100569.81
2023-09-20T15:09:26.468Z,100566.94
2023-09-20T15:11:56.236Z,100572.66
2023-09-20T15:14:25.651Z,100573.91
2023-09-20T15:16:55.459Z,100569.81
2023-09-20T15:19:27.430Z,100567.31
2023-09-20T15:21:57.947Z,100569.38
2023-09-20T15:24:27.477Z,100571.78
2023-09-20T15:27:00.474Z,100572.16
2023-09-20T15:29:30.178Z,100572.06
2023-09-20T15:31:59.876Z,100563.06
2023-09-20T15:34:33.299Z,100561.34
2023-09-20T15:37:02.863Z,100574.41
2023-09-20T15:39:32.752Z,100569.47
2023-09-20T15:42:02.946Z,100574.31
2023-09-20T15:44:35.681Z,100576.34
2023-09-20T15:47:05.085Z,100580.84
2023-09-20T15:49:36.250Z,100575.94
2023-09-20T15:52:05.870Z,100574.69
2023-09-20T15:54:35.446Z,100582.44
2023-09-20T15:57:07.293Z,100584.06
2023-09-20T15:59:36.741Z,100584.88
2023-09-20T16:02:06.722Z,100586.91
2023-09-20T16:04:38.387Z,100581.19
2023-09-20T16:07:08.224Z,100578.34
2023-09-20T16:09:38.131Z,100583.28
2023-09-20T16:12:08.349Z,100591.03
2023-09-20T16:14:38.156Z,100588.16
2023-09-20T16:17:07.734Z,100585.31
2023-09-20T16:19:42.016Z,100589.00
2023-09-20T16:22:18.758Z,100585.31
2023-09-20T16:24:58.290Z,100586.13
2023-09-20T16:27:28.508Z,100593.91
2023-09-20T16:29:58.163Z,100585.31
2023-09-20T16:32:27.574Z,100591.84
2023-09-20T16:34:58.862Z,100602.06
2023-09-20T16:37:28.344Z,100598.38
2023-09-20T16:39:58.050Z,100607.78
2023-09-20T16:42:27.557Z,100603.31
2023-09-20T16:44:57.227Z,100606.16
2023-09-20T16:47:27.466Z,100617.63
2023-09-20T16:49:59.223Z,100614.75
2023-09-20T16:52:28.767Z,100618.03
2023-09-20T16:54:58.393Z,100620.13
2023-09-20T16:57:28.402Z,100625.84
2023-09-20T17:00:01.037Z,100627.88
2023-09-20T17:02:30.807Z,100632.38
2023-09-20T17:05:03.162Z,100631.56
2023-09-20T17:07:33.247Z,100635.69
2023-09-20T17:10:03.125Z,100647.91
2023-09-20T17:12:32.544Z,100639.78
2023-09-20T17:15:02.385Z,100642.19
2023-09-20T17:17:32.156Z,100650.00
2023-09-20T17:20:04.251Z,100653.66
2023-09-20T17:22:33.695Z,100652.84
2023-09-20T17:25:03.064Z,100661.44
2023-09-20T17:27:32.714Z,100659.38
2023-09-20T17:30:02.355Z,100659.38
2023-09-20T17:32:32.278Z,100669.25
2023-09-20T17:35:03.785Z,100669.25
2023-09-20T17:37:34.285Z,100668.41
2023-09-20T17:40:07.056Z,100673.34
2023-09-20T17:42:37.744Z,100681.13
2023-09-20T17:45:08.920Z,100686.84
2023-09-20T17:47:41.087Z,100689.69
2023-09-20T17:50:14.491Z,100686.84
2023-09-20T17:52:48.438Z,100688.09
2023-09-20T17:55:19.328Z,100690.16
2023-09-20T17:57:50.785Z,100692.19
2023-09-20T18:00:27.717Z,100697.91
2023-09-20T18:02:59.767Z,100700.00
2023-09-20T18:05:33.943Z,100697.59
2023-09-20T18:08:05.040Z,100692.28
2023-09-20T18:10:35.564Z,100693.91
2023-09-20T18:13:05.315Z,100700.88
2023-09-20T18:15:34.960Z,100704.56
2023-09-20T18:18:06.693Z,100702.94
2023-09-20T18:20:42.290Z,100698.00
2023-09-20T18:23:12.584Z,100707.03
2023-09-20T18:25:42.750Z,100705.44
2023-09-20T18:28:16.429Z,100700.50
2023-09-20T18:30:49.244Z,100705.44
2023-09-20T18:33:19.509Z,100703.81
2023-09-20T18:35:53.165Z,100705.88
2023-09-20T18:38:22.918Z,100700.16
2023-09-20T18:40:52.523Z,100704.25
2023-09-20T18:43:21.801Z,100712.41
2023-09-20T18:45:51.390Z,100703.44
2023-09-20T18:48:21.848Z,100705.50
2023-09-20T18:50:53.791Z,100696.09
2023-09-20T18:53:23.700Z,100690.38
2023-09-20T18:55:57.125Z,100695.31
2023-09-20T18:58:27.980Z,100698.16
2023-09-20T19:01:12.784Z,100694.84
2023-09-20T19:03:42.872Z,100693.69
2023-09-20T19:06:16.427Z,100693.69
2023-09-20T19:08:48.061Z,100699.41
2023-09-20T19:11:19.517Z,100698.59
2023-09-20T19:13:49.090Z,100697.78
2023-09-20T19:16:19.052Z,100696.16
2023-09-20T19:18:57.174Z,100701.09
2023-09-20T19:21:32.524Z,100705.97
2023-09-20T19:24:06.727Z,100703.56
2023-09-20T19:26:36.455Z,100696.59
2023-09-20T19:29:06.199Z,100695.78
2023-09-20T19:31:36.191Z,100696.59
2023-09-20T19:34:05.713Z,100690.50
2023-09-20T19:36:37.277Z,100689.25
2023-09-20T19:39:07.318Z,100686.41
2023-09-20T19:41:36.859Z,100686.41
2023-09-20T19:44:06.792Z,100688.47
2023-09-20T19:46:36.500Z,100686.41
2023-09-20T19:49:05.917Z,100682.75
2023-09-20T19:51:37.003Z,100681.13
2023-09-20T19:54:10.954Z,100679.06
2023-09-20T19:56:41.948Z,100683.16
2023-09-20T19:59:13.124Z,100681.13
2023-09-20T20:01:45.566Z,100679.50
2023-09-20T20:04:15.308Z,100686.03
2023-09-20T20:06:47.163Z,100678.28
2023-09-20T20:09:17.567Z,100680.31
2023-09-20T20:11:47.469Z,100677.44
2023-09-20T20:14:16.887Z,100680.31
2023-09-20T20:16:46.310Z,100670.94
2023-09-20T20:19:16.481Z,100668.88
2023-09-20T20:21:50.154Z,100667.25
2023-09-20T20:24:19.812Z,100668.50
2023-09-20T20:26:49.201Z,100668.50
2023-09-20T20:29:19.746Z,100661.97
2023-09-20T20:31:49.634Z,100664.03
2023-09-20T20:34:19.530Z,100663.22
2023-09-20T20:36:51.175Z,100668.94
2023-09-20T20:39:20.774Z,100667.31
2023-09-20T20:41:52.268Z,100670.19
2023-09-20T20:44:21.885Z,100671.81
2023-09-20T20:46:53.609Z,100662.44
2023-09-20T20:49:23.515Z,100673.06
2023-09-20T20:51:54.975Z,100661.59
2023-09-20T20:54:26.102Z,100671.44
2023-09-20T20:56:56.037Z,100668.56
2023-09-20T20:59:28.074Z,100670.66
2023-09-20T21:01:57.950Z,100673.50
2023-09-20T21:04:27.557Z,100669.81
2023-09-20T21:07:00.239Z,100672.69
2023-09-20T21:09:32.520Z,100679.66
2023-09-20T21:12:16.679Z,100670.28
2023-09-20T21:14:46.254Z,100665.78
2023-09-20T21:17:15.906Z,100665.78
2023-09-20T21:20:10.739Z,100666.63
2023-09-20T21:22:45.148Z,100667.03
2023-09-20T21:25:14.701Z,100667.88
2023-09-20T21:27:44.074Z,100666.25
2023-09-20T21:30:15.267Z,100669.91
2023-09-20T21:32:44.821Z,100669.91
2023-09-20T21:35:14.371Z,100666.25
2023-09-20T21:37:45.634Z,100671.97
2023-09-20T21:40:17.533Z,100662.56
2023-09-20T21:42:47.082Z,100667.50
2023-09-20T21:45:16.796Z,100665.09
2023-09-20T21:47:47.872Z,100659.38
2023-09-20T21:50:17.517Z,100665.09
2023-09-20T21:52:50.711Z,100658.91
2023-09-20T21:55:20.290Z,100660.16
2023-09-20T21:57:49.794Z,100662.22
2023-09-20T22:00:30.995Z,100665.09
2023-09-20T22:03:02.531Z,100662.22
2023-09-20T22:05:33.412Z,100658.53
2023-09-20T22:08:10.302Z,100663.03
2023-09-20T22:10:43.313Z,100661.41
2023-09-20T22:13:15.844Z,100656.94
2023-09-20T22:15:46.713Z,100656.94
2023-09-20T22:18:26.218Z,100654.06
2023-09-20T22:21:09.468Z,100659.00
2023-09-20T22:23:41.681Z,100650.41
2023-09-20T22:26:12.575Z,100653.28
2023-09-20T22:28:42.815Z,100645.47
2023-09-20T22:31:20.404Z,100652.81
2023-09-20T22:33:50.087Z,100652.03
2023-09-20T22:36:19.942Z,100652.81
2023-09-20T22:38:50.998Z,100657.28
2023-09-20T22:41:22.896Z,100651.56
2023-09-20T22:43:52.363Z,100651.56
2023-09-20T22:46:22.191Z,100653.19
2023-09-20T22:48:52.002Z,100653.97
2023-09-20T22:51:24.057Z,100655.22
2023-09-20T22:55:06.569Z,100656.06
2023-09-20T22:57:38.141Z,100651.66
2023-09-20T23:00:23.114Z,100654.06
2023-09-20T23:02:54.253Z,100654.50
2023-09-20T23:05:26.186Z,100654.06
2023-09-20T23:07:56.117Z,100644.69
2023-09-20T23:10:26.067Z,100650.41
2023-09-20T23:12:59.007Z,100648.34
2023-09-20T23:15:32.057Z,100638.16
2023-09-20T23:18:03.756Z,100643.88
2023-09-20T23:20:38.680Z,100633.25
2023-09-20T23:23:11.762Z,100632.41
2023-09-20T23:25:43.128Z,100635.28
2023-09-20T23:28:15.837Z,100628.78
2023-09-20T23:30:48.671Z,100625.91
2023-09-20T23:33:23.008Z,100627.94
2023-09-20T23:35:55.049Z,100628.78
2023-09-20T23:38:34.690Z,100623.03
2023-09-20T23:41:11.637Z,100628.78
2023-09-20T23:43:45.965Z,100622.22
2023-09-20T23:46:24.006Z,100627.16
2023-09-20T23:48:54.326Z,100617.75
2023-09-20T23:51:25.692Z,100607.13
2023-09-20T23:53:55.064Z,100615.72
2023-09-20T23:56:24.832Z,100614.47
2023-09-20T23:58:56.532Z,100620.19
